sensor_id;sensor_type;location;lat;lon;timestamp;pressure;altitude;pressure_sealevel;temperature;humidity
54872;BME280;43914;57.680;11.982;2023-05-25T00:01:27;100960.23;;;12.21;100.00
54872;BME280;43914;57.680;11.982;2023-05-25T00:03:52;100963.62;;;12.20;100.00
54872;BME280;43914;57.680;11.982;2023-05-25T00:06:20;100959.15;;;12.17;100.00
54872;BME280;43914;57.680;11.982;2023-05-25T00:08:46;100959.95;;;12.15;100.00
54872;BME280;43914;57.680;11.982;2023-05-25T00:11:13;100965.72;;;12.11;100.00
54872;BME280;43914;57.680;11.982;2023-05-25T00:13:39;100973.20;;;12.10;100.00
54872;BME280;43914;57.680;11.982;2023-05-25T00:16:06;100975.55;;;12.07;100.00
54872;BME280;43914;57.680;11.982;2023-05-25T00:18:32;100971.33;;;12.05;100.00
54872;BME280;43914;57.680;11.982;2023-05-25T00:20:58;100964.30;;;12.01;100.00
54872;BME280;43914;57.680;11.982;2023-05-25T00:23:30;100959.66;;;11.96;100.00
54872;BME280;43914;57.680;11.982;2023-05-25T00:25:55;100967.16;;;11.93;100.00
54872;BME280;43914;57.680;11.982;2023-05-25T00:28:21;100960.20;;;11.87;100.00
54872;BME280;43914;57.680;11.982;2023-05-25T00:31:02;100971.73;;;11.91;100.00
54872;BME280;43914;57.680;11.982;2023-05-25T00:33:28;100969.35;;;11.89;100.00
54872;BME280;43914;57.680;11.982;2023-05-25T00:35:53;100973.02;;;11.85;100.00
54872;BME280;43914;57.680;11.982;2023-05-25T00:38:19;100974.36;;;11.83;100.00
54872;BME280;43914;57.680;11.982;2023-05-25T00:40:45;100974.25;;;11.81;100.00
54872;BME280;43914;57.680;11.982;2023-05-25T00:43:12;100975.00;;;11.78;100.00
54872;BME280;43914;57.680;11.982;2023-05-25T00:45:38;100968.80;;;11.75;100.00
54872;BME280;43914;57.680;11.982;2023-05-25T00:48:04;100961.81;;;11.72;100.00
54872;BME280;43914;57.680;11.982;2023-05-25T00:50:38;100966.82;;;11.69;100.00
54872;BME280;43914;57.680;11.982;2023-05-25T00:53:05;100973.45;;;11.68;100.00
54872;BME280;43914;57.680;11.982;2023-05-25T00:55:36;100978.04;;;11.67;100.00
54872;BME280;43914;57.680;11.982;2023-05-25T00:58:03;100986.29;;;11.67;100.00
54872;BME280;43914;57.680;11.982;2023-05-25T01:00:31;100994.73;;;11.68;100.00
54872;BME280;43914;57.680;11.982;2023-05-25T01:02:58;100992.27;;;11.68;100.00
54872;BME280;43914;57.680;11.982;2023-05-25T01:05:26;100992.98;;;11.68;100.00
54872;BME280;43914;57.680;11.982;2023-05-25T01:07:55;100997.05;;;11.69;100.00
54872;BME280;43914;57.680;11.982;2023-05-25T01:10:23;101000.38;;;11.68;100.00
54872;BME280;43914;57.680;11.982;2023-05-25T01:12:52;101000.05;;;11.69;100.00
54872;BME280;43914;57.680;11.982;2023-05-25T01:15:19;101002.29;;;11.68;100.00
54872;BME280;43914;57.680;11.982;2023-05-25T01:17:45;101001.00;;;11.69;100.00
54872;BME280;43914;57.680;11.982;2023-05-25T01:20:10;101004.78;;;11.69;100.00
54872;BME280;43914;57.680;11.982;2023-05-25T01:22:47;101009.61;;;11.67;100.00
54872;BME280;43914;57.680;11.982;2023-05-25T01:25:26;101012.46;;;11.67;100.00
54872;BME280;43914;57.680;11.982;2023-05-25T01:30:39;101016.17;;;11.68;100.00
54872;BME280;43914;57.680;11.982;2023-05-25T01:33:06;101018.86;;;11.68;100.00
54872;BME280;43914;57.680;11.982;2023-05-25T01:35:35;101022.58;;;11.70;100.00
54872;BME280;43914;57.680;11.982;2023-05-25T01:38:01;101022.62;;;11.70;100.00
54872;BME280;43914;57.680;11.982;2023-05-25T01:40:27;101021.27;;;11.69;100.00
54872;BME280;43914;57.680;11.982;2023-05-25T01:42:53;101024.67;;;11.69;100.00
54872;BME280;43914;57.680;11.982;2023-05-25T01:45:18;101026.61;;;11.69;100.00
54872;BME280;43914;57.680;11.982;2023-05-25T01:51:01;101025.91;;;11.69;100.00
54872;BME280;43914;57.680;11.982;2023-05-25T01:53:33;101021.81;;;11.69;100.00
54872;BME280;43914;57.680;11.982;2023-05-25T01:56:05;101019.46;;;11.67;99.90
54872;BME280;43914;57.680;11.982;2023-05-25T01:58:43;101021.09;;;11.67;99.46
54872;BME280;43914;57.680;11.982;2023-05-25T02:01:13;101023.77;;;11.67;99.11
54872;BME280;43914;57.680;11.982;2023-05-25T02:03:42;101027.47;;;11.68;98.48
54872;BME280;43914;57.680;11.982;2023-05-25T02:06:09;101034.84;;;11.68;97.88
54872;BME280;43914;57.680;11.982;2023-05-25T02:08:37;101034.30;;;11.68;97.20
54872;BME280;43914;57.680;11.982;2023-05-25T02:11:02;101033.63;;;11.68;96.98
54872;BME280;43914;57.680;11.982;2023-05-25T02:13:28;101036.06;;;11.67;96.65
54872;BME280;43914;57.680;11.982;2023-05-25T02:15:53;101028.44;;;11.66;96.29
54872;BME280;43914;57.680;11.982;2023-05-25T02:18:19;101025.71;;;11.63;95.76
54872;BME280;43914;57.680;11.982;2023-05-25T02:20:44;101029.23;;;11.64;95.65
54872;BME280;43914;57.680;11.982;2023-05-25T02:23:12;101030.59;;;11.63;95.14
54872;BME280;43914;57.680;11.982;2023-05-25T02:25:37;101024.46;;;11.60;94.93
54872;BME280;43914;57.680;11.982;2023-05-25T02:28:03;101027.16;;;11.60;94.64
54872;BME280;43914;57.680;11.982;2023-05-25T02:30:29;101029.98;;;11.61;94.55
54872;BME280;43914;57.680;11.982;2023-05-25T02:32:55;101031.83;;;11.60;94.32
54872;BME280;43914;57.680;11.982;2023-05-25T02:35:21;101030.94;;;11.59;94.04
54872;BME280;43914;57.680;11.982;2023-05-25T02:37:47;101043.30;;;11.57;93.78
54872;BME280;43914;57.680;11.982;2023-05-25T02:40:12;101049.01;;;11.56;93.21
54872;BME280;43914;57.680;11.982;2023-05-25T02:42:38;101038.14;;;11.55;92.77
54872;BME280;43914;57.680;11.982;2023-05-25T02:45:05;101045.95;;;11.54;92.20
54872;BME280;43914;57.680;11.982;2023-05-25T02:47:34;101050.73;;;11.53;91.33
54872;BME280;43914;57.680;11.982;2023-05-25T02:50:00;101052.45;;;11.52;91.04
54872;BME280;43914;57.680;11.982;2023-05-25T02:52:25;101056.45;;;11.50;90.37
54872;BME280;43914;57.680;11.982;2023-05-25T02:54:51;101058.28;;;11.49;89.69
54872;BME280;43914;57.680;11.982;2023-05-25T02:57:16;101060.31;;;11.45;88.48
54872;BME280;43914;57.680;11.982;2023-05-25T02:59:45;101069.92;;;11.43;87.46
54872;BME280;43914;57.680;11.982;2023-05-25T03:02:11;101079.50;;;11.41;86.45
54872;BME280;43914;57.680;11.982;2023-05-25T03:04:37;101085.16;;;11.38;85.93
54872;BME280;43914;57.680;11.982;2023-05-25T03:07:06;101088.55;;;11.35;85.82
54872;BME280;43914;57.680;11.982;2023-05-25T03:09:31;101096.05;;;11.31;85.54
54872;BME280;43914;57.680;11.982;2023-05-25T03:11:57;101097.54;;;11.26;84.63
54872;BME280;43914;57.680;11.982;2023-05-25T03:14:22;101095.83;;;11.22;84.62
54872;BME280;43914;57.680;11.982;2023-05-25T03:16:48;101093.84;;;11.18;84.28
54872;BME280;43914;57.680;11.982;2023-05-25T03:19:14;101102.46;;;11.15;84.42
54872;BME280;43914;57.680;11.982;2023-05-25T03:21:40;101104.35;;;11.09;84.27
54872;BME280;43914;57.680;11.982;2023-05-25T03:24:05;101105.51;;;11.05;83.82
54872;BME280;43914;57.680;11.982;2023-05-25T03:26:32;101108.41;;;11.02;83.57
54872;BME280;43914;57.680;11.982;2023-05-25T03:28:58;101121.33;;;10.99;84.19
54872;BME280;43914;57.680;11.982;2023-05-25T03:31:23;101125.50;;;10.93;84.27
54872;BME280;43914;57.680;11.982;2023-05-25T03:33:49;101132.77;;;10.91;84.42
54872;BME280;43914;57.680;11.982;2023-05-25T03:36:15;101136.76;;;10.87;84.14
54872;BME280;43914;57.680;11.982;2023-05-25T03:38:43;101140.08;;;10.83;83.69
54872;BME280;43914;57.680;11.982;2023-05-25T03:41:08;101148.23;;;10.81;83.91
54872;BME280;43914;57.680;11.982;2023-05-25T03:43:34;101153.11;;;10.79;82.71
54872;BME280;43914;57.680;11.982;2023-05-25T03:45:59;101159.63;;;10.77;81.94
54872;BME280;43914;57.680;11.982;2023-05-25T03:48:25;101164.91;;;10.75;81.00
54872;BME280;43914;57.680;11.982;2023-05-25T03:50:50;101166.10;;;10.72;80.14
54872;BME280;43914;57.680;11.982;2023-05-25T03:53:16;101173.77;;;10.71;79.89
54872;BME280;43914;57.680;11.982;2023-05-25T03:55:42;101175.55;;;10.69;79.85
54872;BME280;43914;57.680;11.982;2023-05-25T03:58:08;101180.85;;;10.67;78.88
54872;BME280;43914;57.680;11.982;2023-05-25T04:00:36;101181.55;;;10.65;78.38
54872;BME280;43914;57.680;11.982;2023-05-25T04:03:02;101184.33;;;10.65;78.90
54872;BME280;43914;57.680;11.982;2023-05-25T04:05:27;101187.04;;;10.63;77.70
54872;BME280;43914;57.680;11.982;2023-05-25T04:07:54;101189.09;;;10.64;77.22
54872;BME280;43914;57.680;11.982;2023-05-25T04:10:25;101188.13;;;10.63;77.10
54872;BME280;43914;57.680;11.982;2023-05-25T04:12:54;101188.94;;;10.62;77.02
54872;BME280;43914;57.680;11.982;2023-05-25T04:15:21;101196.46;;;10.59;76.54
54872;BME280;43914;57.680;11.982;2023-05-25T04:17:47;101193.45;;;10.57;76.76
54872;BME280;43914;57.680;11.982;2023-05-25T04:20:12;101197.78;;;10.56;76.85
54872;BME280;43914;57.680;11.982;2023-05-25T04:22:37;101203.13;;;10.57;77.18
54872;BME280;43914;57.680;11.982;2023-05-25T04:25:07;101203.83;;;10.58;77.20
54872;BME280;43914;57.680;11.982;2023-05-25T04:27:33;101206.84;;;10.59;76.56
54872;BME280;43914;57.680;11.982;2023-05-25T04:29:58;101206.10;;;10.59;76.26
54872;BME280;43914;57.680;11.982;2023-05-25T04:32:25;101204.62;;;10.59;76.05
54872;BME280;43914;57.680;11.982;2023-05-25T04:34:55;101210.84;;;10.61;76.33
54872;BME280;43914;57.680;11.982;2023-05-25T04:37:22;101208.92;;;10.61;76.06
54872;BME280;43914;57.680;11.982;2023-05-25T04:39:51;101218.92;;;10.64;76.07
54872;BME280;43914;57.680;11.982;2023-05-25T04:42:16;101219.29;;;10.66;76.03
54872;BME280;43914;57.680;11.982;2023-05-25T04:44:42;101222.75;;;10.67;75.55
54872;BME280;43914;57.680;11.982;2023-05-25T04:47:07;101227.95;;;10.69;75.74
54872;BME280;43914;57.680;11.982;2023-05-25T04:49:33;101233.67;;;10.72;74.95
54872;BME280;43914;57.680;11.982;2023-05-25T04:51:58;101234.34;;;10.74;74.47
54872;BME280;43914;57.680;11.982;2023-05-25T04:54:24;101233.30;;;10.77;74.06
54872;BME280;43914;57.680;11.982;2023-05-25T04:56:49;101241.77;;;10.80;74.18
54872;BME280;43914;57.680;11.982;2023-05-25T04:59:15;101242.02;;;10.82;73.51
54872;BME280;43914;57.680;11.982;2023-05-25T05:01:41;101245.91;;;10.84;73.45
54872;BME280;43914;57.680;11.982;2023-05-25T05:04:09;101247.98;;;10.87;72.93
54872;BME280;43914;57.680;11.982;2023-05-25T05:06:35;101254.27;;;10.88;72.99
54872;BME280;43914;57.680;11.982;2023-05-25T05:09:03;101263.09;;;10.91;72.87
54872;BME280;43914;57.680;11.982;2023-05-25T05:11:29;101257.88;;;10.93;70.83
54872;BME280;43914;57.680;11.982;2023-05-25T05:13:54;101262.73;;;10.97;71.09
54872;BME280;43914;57.680;11.982;2023-05-25T05:16:21;101262.86;;;11.00;69.76
54872;BME280;43914;57.680;11.982;2023-05-25T05:18:47;101257.98;;;11.05;70.37
54872;BME280;43914;57.680;11.982;2023-05-25T05:21:12;101256.20;;;11.08;69.12
54872;BME280;43914;57.680;11.982;2023-05-25T05:23:42;101262.79;;;11.10;67.70
54872;BME280;43914;57.680;11.982;2023-05-25T05:26:07;101271.15;;;11.12;67.30
54872;BME280;43914;57.680;11.982;2023-05-25T05:28:36;101261.80;;;11.15;67.21
54872;BME280;43914;57.680;11.982;2023-05-25T05:31:01;101258.39;;;11.20;67.60
54872;BME280;43914;57.680;11.982;2023-05-25T05:33:27;101265.41;;;11.25;66.75
54872;BME280;43914;57.680;11.982;2023-05-25T05:35:52;101269.42;;;11.29;66.44
54872;BME280;43914;57.680;11.982;2023-05-25T05:38:18;101268.37;;;11.30;65.33
54872;BME280;43914;57.680;11.982;2023-05-25T05:40:44;101277.85;;;11.31;64.24
54872;BME280;43914;57.680;11.982;2023-05-25T05:43:12;101280.80;;;11.32;64.73
54872;BME280;43914;57.680;11.982;2023-05-25T05:45:37;101283.10;;;11.32;64.02
54872;BME280;43914;57.680;11.982;2023-05-25T05:48:03;101283.81;;;11.30;63.08
54872;BME280;43914;57.680;11.982;2023-05-25T05:50:30;101284.78;;;11.31;63.47
54872;BME280;43914;57.680;11.982;2023-05-25T05:52:56;101287.51;;;11.32;63.14
54872;BME280;43914;57.680;11.982;2023-05-25T05:55:21;101285.20;;;11.34;63.34
54872;BME280;43914;57.680;11.982;2023-05-25T05:57:46;101283.79;;;11.35;62.43
54872;BME280;43914;57.680;11.982;2023-05-25T06:00:13;101289.42;;;11.37;62.09
54872;BME280;43914;57.680;11.982;2023-05-25T06:02:38;101290.05;;;11.42;62.59
54872;BME280;43914;57.680;11.982;2023-05-25T06:05:06;101299.89;;;11.45;62.47
54872;BME280;43914;57.680;11.982;2023-05-25T06:07:31;101299.27;;;11.46;61.06
54872;BME280;43914;57.680;11.982;2023-05-25T06:10:00;101304.08;;;11.48;61.00
54872;BME280;43914;57.680;11.982;2023-05-25T06:12:25;101309.63;;;11.49;60.75
54872;BME280;43914;57.680;11.982;2023-05-25T06:14:51;101309.30;;;11.51;59.79
54872;BME280;43914;57.680;11.982;2023-05-25T06:17:18;101317.17;;;11.52;58.83
54872;BME280;43914;57.680;11.982;2023-05-25T06:19:43;101320.12;;;11.55;59.76
54872;BME280;43914;57.680;11.982;2023-05-25T06:22:10;101324.64;;;11.60;60.36
54872;BME280;43914;57.680;11.982;2023-05-25T06:24:35;101331.58;;;11.65;59.40
54872;BME280;43914;57.680;11.982;2023-05-25T06:27:01;101338.44;;;11.66;58.53
54872;BME280;43914;57.680;11.982;2023-05-25T06:29:28;101338.85;;;11.70;59.21
54872;BME280;43914;57.680;11.982;2023-05-25T06:31:53;101339.64;;;11.74;59.07
54872;BME280;43914;57.680;11.982;2023-05-25T06:34:19;101341.27;;;11.79;56.98
54872;BME280;43914;57.680;11.982;2023-05-25T06:36:45;101337.98;;;11.79;56.71
54872;BME280;43914;57.680;11.982;2023-05-25T06:39:14;101335.91;;;11.83;57.91
54872;BME280;43914;57.680;11.982;2023-05-25T06:41:39;101337.45;;;11.90;58.11
54872;BME280;43914;57.680;11.982;2023-05-25T06:44:06;101340.59;;;11.94;56.43
54872;BME280;43914;57.680;11.982;2023-05-25T06:46:31;101339.89;;;11.94;55.16
54872;BME280;43914;57.680;11.982;2023-05-25T06:48:58;101340.48;;;11.97;56.26
54872;BME280;43914;57.680;11.982;2023-05-25T06:51:25;101335.70;;;12.01;55.01
54872;BME280;43914;57.680;11.982;2023-05-25T06:53:53;101335.63;;;12.06;55.53
54872;BME280;43914;57.680;11.982;2023-05-25T06:56:20;101337.87;;;12.16;56.51
54872;BME280;43914;57.680;11.982;2023-05-25T06:58:46;101336.44;;;12.24;55.50
54872;BME280;43914;57.680;11.982;2023-05-25T07:01:11;101340.84;;;12.30;54.29
54872;BME280;43914;57.680;11.982;2023-05-25T07:03:37;101347.14;;;12.34;53.31
54872;BME280;43914;57.680;11.982;2023-05-25T07:06:03;101345.74;;;12.35;50.78
54872;BME280;43914;57.680;11.982;2023-05-25T07:08:29;101350.02;;;12.34;50.67
54872;BME280;43914;57.680;11.982;2023-05-25T07:10:55;101347.37;;;12.32;49.46
54872;BME280;43914;57.680;11.982;2023-05-25T07:13:21;101349.45;;;12.31;49.31
54872;BME280;43914;57.680;11.982;2023-05-25T07:15:46;101347.11;;;12.31;49.19
54872;BME280;43914;57.680;11.982;2023-05-25T07:18:12;101344.05;;;12.31;49.45
54872;BME280;43914;57.680;11.982;2023-05-25T07:20:39;101347.80;;;12.35;49.57
54872;BME280;43914;57.680;11.982;2023-05-25T07:23:07;101348.00;;;12.39;50.44
54872;BME280;43914;57.680;11.982;2023-05-25T07:25:34;101351.27;;;12.47;51.16
54872;BME280;43914;57.680;11.982;2023-05-25T07:28:01;101358.94;;;12.50;49.66
54872;BME280;43914;57.680;11.982;2023-05-25T07:30:27;101354.65;;;12.54;49.52
54872;BME280;43914;57.680;11.982;2023-05-25T07:32:52;101354.88;;;12.59;49.61
54872;BME280;43914;57.680;11.982;2023-05-25T07:35:18;101351.05;;;12.63;49.32
54872;BME280;43914;57.680;11.982;2023-05-25T07:37:43;101348.70;;;12.70;50.12
54872;BME280;43914;57.680;11.982;2023-05-25T07:40:10;101357.94;;;12.74;49.35
54872;BME280;43914;57.680;11.982;2023-05-25T07:42:35;101356.04;;;12.75;50.31
54872;BME280;43914;57.680;11.982;2023-05-25T07:45:01;101362.41;;;12.80;50.34
54872;BME280;43914;57.680;11.982;2023-05-25T07:47:28;101364.10;;;12.82;50.10
54872;BME280;43914;57.680;11.982;2023-05-25T07:49:53;101368.84;;;12.87;50.69
54872;BME280;43914;57.680;11.982;2023-05-25T07:52:19;101366.95;;;12.92;50.26
54872;BME280;43914;57.680;11.982;2023-05-25T07:54:45;101366.19;;;12.95;50.08
54872;BME280;43914;57.680;11.982;2023-05-25T07:57:10;101368.42;;;13.01;49.59
54872;BME280;43914;57.680;11.982;2023-05-25T07:59:36;101373.36;;;13.06;49.60
54872;BME280;43914;57.680;11.982;2023-05-25T08:02:02;101372.70;;;13.12;49.55
54872;BME280;43914;57.680;11.982;2023-05-25T08:04:29;101373.55;;;13.17;49.46
54872;BME280;43914;57.680;11.982;2023-05-25T08:06:55;101372.29;;;13.21;49.30
54872;BME280;43914;57.680;11.982;2023-05-25T08:09:21;101372.74;;;13.22;48.75
54872;BME280;43914;57.680;11.982;2023-05-25T08:11:47;101376.53;;;13.25;48.90
54872;BME280;43914;57.680;11.982;2023-05-25T08:14:13;101375.27;;;13.29;48.07
54872;BME280;43914;57.680;11.982;2023-05-25T08:16:38;101379.23;;;13.34;47.48
54872;BME280;43914;57.680;11.982;2023-05-25T08:19:04;101376.63;;;13.34;47.14
54872;BME280;43914;57.680;11.982;2023-05-25T08:21:30;101375.33;;;13.38;47.39
54872;BME280;43914;57.680;11.982;2023-05-25T08:23:59;101376.62;;;13.42;47.07
54872;BME280;43914;57.680;11.982;2023-05-25T08:26:31;101384.06;;;13.45;47.13
54872;BME280;43914;57.680;11.982;2023-05-25T08:28:57;101381.51;;;13.47;47.18
54872;BME280;43914;57.680;11.982;2023-05-25T08:31:22;101380.11;;;13.52;47.33
54872;BME280;43914;57.680;11.982;2023-05-25T08:33:48;101388.23;;;13.56;46.89
54872;BME280;43914;57.680;11.982;2023-05-25T08:36:13;101387.12;;;13.60;46.62
54872;BME280;43914;57.680;11.982;2023-05-25T08:38:39;101386.09;;;13.61;46.06
54872;BME280;43914;57.680;11.982;2023-05-25T08:41:05;101399.48;;;13.66;46.65
54872;BME280;43914;57.680;11.982;2023-05-25T08:43:32;101398.99;;;13.67;46.62
54872;BME280;43914;57.680;11.982;2023-05-25T08:46:08;101402.06;;;13.73;47.23
54872;BME280;43914;57.680;11.982;2023-05-25T08:48:35;101403.02;;;13.79;46.98
54872;BME280;43914;57.680;11.982;2023-05-25T08:51:05;101397.77;;;13.82;47.09
54872;BME280;43914;57.680;11.982;2023-05-25T08:53:34;101396.70;;;13.89;47.52
54872;BME280;43914;57.680;11.982;2023-05-25T08:56:06;101400.35;;;13.93;46.39
54872;BME280;43914;57.680;11.982;2023-05-25T08:58:57;101405.23;;;13.90;45.60
54872;BME280;43914;57.680;11.982;2023-05-25T09:01:27;101404.77;;;13.95;46.30
54872;BME280;43914;57.680;11.982;2023-05-25T09:03:56;101402.70;;;14.02;45.65
54872;BME280;43914;57.680;11.982;2023-05-25T09:06:24;101404.79;;;14.04;45.19
54872;BME280;43914;57.680;11.982;2023-05-25T09:08:51;101413.42;;;14.06;44.10
54872;BME280;43914;57.680;11.982;2023-05-25T09:11:19;101413.65;;;14.08;43.79
54872;BME280;43914;57.680;11.982;2023-05-25T09:13:45;101413.64;;;14.11;44.32
54872;BME280;43914;57.680;11.982;2023-05-25T09:16:11;101412.47;;;14.19;45.03
54872;BME280;43914;57.680;11.982;2023-05-25T09:18:36;101417.16;;;14.25;44.43
54872;BME280;43914;57.680;11.982;2023-05-25T09:21:03;101417.69;;;14.23;43.96
54872;BME280;43914;57.680;11.982;2023-05-25T09:23:31;101414.73;;;14.20;43.59
54872;BME280;43914;57.680;11.982;2023-05-25T09:25:56;101414.50;;;14.19;43.63
54872;BME280;43914;57.680;11.982;2023-05-25T09:28:25;101421.38;;;14.21;43.75
54872;BME280;43914;57.680;11.982;2023-05-25T09:30:51;101417.08;;;14.25;43.48
54872;BME280;43914;57.680;11.982;2023-05-25T09:33:16;101415.58;;;14.30;43.11
54872;BME280;43914;57.680;11.982;2023-05-25T09:35:46;101412.72;;;14.30;42.98
54872;BME280;43914;57.680;11.982;2023-05-25T09:41:09;101409.63;;;14.48;43.50
54872;BME280;43914;57.680;11.982;2023-05-25T09:43:35;101412.48;;;14.52;43.32
54872;BME280;43914;57.680;11.982;2023-05-25T09:46:01;101415.20;;;14.55;43.92
54872;BME280;43914;57.680;11.982;2023-05-25T09:48:26;101417.34;;;14.52;44.26
54872;BME280;43914;57.680;11.982;2023-05-25T09:50:53;101418.20;;;14.48;44.85
54872;BME280;43914;57.680;11.982;2023-05-25T09:53:22;101424.79;;;14.52;45.31
54872;BME280;43914;57.680;11.982;2023-05-25T09:55:47;101437.80;;;14.47;45.04
54872;BME280;43914;57.680;11.982;2023-05-25T09:58:14;101433.71;;;14.41;45.30
54872;BME280;43914;57.680;11.982;2023-05-25T10:00:40;101430.67;;;14.33;45.45
54872;BME280;43914;57.680;11.982;2023-05-25T10:03:05;101436.67;;;14.33;45.83
54872;BME280;43914;57.680;11.982;2023-05-25T10:05:32;101431.48;;;14.31;46.35
54872;BME280;43914;57.680;11.982;2023-05-25T10:07:58;101434.08;;;14.32;46.56
54872;BME280;43914;57.680;11.982;2023-05-25T10:10:26;101448.02;;;14.36;46.93
54872;BME280;43914;57.680;11.982;2023-05-25T10:12:53;101447.90;;;14.34;46.58
54872;BME280;43914;57.680;11.982;2023-05-25T10:15:20;101451.69;;;14.37;47.27
54872;BME280;43914;57.680;11.982;2023-05-25T10:17:52;101463.04;;;14.41;46.80
54872;BME280;43914;57.680;11.982;2023-05-25T10:20:20;101464.34;;;14.38;46.67
54872;BME280;43914;57.680;11.982;2023-05-25T10:22:55;101473.01;;;14.35;46.85
54872;BME280;43914;57.680;11.982;2023-05-25T10:25:28;101472.38;;;14.34;46.56
54872;BME280;43914;57.680;11.982;2023-05-25T10:27:59;101471.63;;;14.35;46.80
54872;BME280;43914;57.680;11.982;2023-05-25T10:30:26;101481.10;;;14.37;46.54
54872;BME280;43914;57.680;11.982;2023-05-25T10:32:58;101484.00;;;14.35;46.60
54872;BME280;43914;57.680;11.982;2023-05-25T10:35:25;101478.00;;;14.35;46.43
54872;BME280;43914;57.680;11.982;2023-05-25T10:37:52;101482.41;;;14.44;46.70
54872;BME280;43914;57.680;11.982;2023-05-25T10:40:22;101484.31;;;14.47;46.16
54872;BME280;43914;57.680;11.982;2023-05-25T10:42:51;101489.63;;;14.50;45.90
54872;BME280;43914;57.680;11.982;2023-05-25T10:45:17;101493.38;;;14.42;45.70
54872;BME280;43914;57.680;11.982;2023-05-25T10:47:43;101493.73;;;14.36;46.00
54872;BME280;43914;57.680;11.982;2023-05-25T10:50:21;101488.68;;;14.38;46.42
54872;BME280;43914;57.680;11.982;2023-05-25T10:55:24;101464.27;;;14.68;46.75
54872;BME280;43914;57.680;11.982;2023-05-25T10:58:22;101464.15;;;14.81;46.56
54872;BME280;43914;57.680;11.982;2023-05-25T11:01:06;101454.58;;;14.86;45.69
54872;BME280;43914;57.680;11.982;2023-05-25T11:03:52;101456.16;;;14.84;45.59
54872;BME280;43914;57.680;11.982;2023-05-25T11:06:20;101468.33;;;14.86;45.46
54872;BME280;43914;57.680;11.982;2023-05-25T11:08:56;101460.96;;;14.89;45.45
54872;BME280;43914;57.680;11.982;2023-05-25T11:14:21;101475.58;;;14.93;45.25
54872;BME280;43914;57.680;11.982;2023-05-25T11:22:20;101467.19;;;15.15;45.16
54872;BME280;43914;57.680;11.982;2023-05-25T11:24:47;101468.39;;;15.34;45.39
54872;BME280;43914;57.680;11.982;2023-05-25T11:27:13;101475.67;;;15.41;44.25
54872;BME280;43914;57.680;11.982;2023-05-25T11:29:39;101471.33;;;15.44;44.21
54872;BME280;43914;57.680;11.982;2023-05-25T11:32:13;101478.71;;;15.52;43.71
54872;BME280;43914;57.680;11.982;2023-05-25T11:34:39;101485.77;;;15.47;42.86
54872;BME280;43914;57.680;11.982;2023-05-25T11:37:17;101487.95;;;15.43;42.76
54872;BME280;43914;57.680;11.982;2023-05-25T11:39:50;101471.75;;;15.40;42.07
54872;BME280;43914;57.680;11.982;2023-05-25T11:42:22;101474.70;;;15.38;41.14
54872;BME280;43914;57.680;11.982;2023-05-25T11:44:48;101477.48;;;15.29;40.15
54872;BME280;43914;57.680;11.982;2023-05-25T11:47:15;101475.91;;;15.26;40.91
54872;BME280;43914;57.680;11.982;2023-05-25T11:49:47;101481.90;;;15.29;41.10
54872;BME280;43914;57.680;11.982;2023-05-25T11:52:15;101479.55;;;15.32;40.08
54872;BME280;43914;57.680;11.982;2023-05-25T11:54:42;101484.49;;;15.37;40.04
54872;BME280;43914;57.680;11.982;2023-05-25T11:57:21;101492.23;;;15.37;39.83
54872;BME280;43914;57.680;11.982;2023-05-25T11:59:53;101488.89;;;15.39;40.27
54872;BME280;43914;57.680;11.982;2023-05-25T12:02:19;101489.00;;;15.49;40.29
54872;BME280;43914;57.680;11.982;2023-05-25T12:04:58;101482.27;;;15.60;39.76
54872;BME280;43914;57.680;11.982;2023-05-25T12:07:26;101491.26;;;15.64;40.49
54872;BME280;43914;57.680;11.982;2023-05-25T12:10:09;101485.18;;;15.82;41.05
54872;BME280;43914;57.680;11.982;2023-05-25T12:15:28;101492.40;;;16.07;40.12
54872;BME280;43914;57.680;11.982;2023-05-25T12:17:54;101482.80;;;16.16;39.81
54872;BME280;43914;57.680;11.982;2023-05-25T12:20:23;101479.03;;;16.29;40.34
54872;BME280;43914;57.680;11.982;2023-05-25T12:22:52;101482.15;;;16.37;40.67
54872;BME280;43914;57.680;11.982;2023-05-25T12:25:19;101477.50;;;16.31;40.52
54872;BME280;43914;57.680;11.982;2023-05-25T12:27:46;101470.23;;;16.37;41.05
54872;BME280;43914;57.680;11.982;2023-05-25T12:30:12;101470.60;;;16.48;40.68
54872;BME280;43914;57.680;11.982;2023-05-25T12:32:54;101471.49;;;16.55;39.91
54872;BME280;43914;57.680;11.982;2023-05-25T12:35:23;101473.86;;;16.77;40.17
54872;BME280;43914;57.680;11.982;2023-05-25T12:37:49;101467.14;;;16.89;40.20
54872;BME280;43914;57.680;11.982;2023-05-25T12:40:18;101467.88;;;17.11;40.10
54872;BME280;43914;57.680;11.982;2023-05-25T12:43:00;101460.59;;;17.23;37.69
54872;BME280;43914;57.680;11.982;2023-05-25T12:45:25;101470.58;;;17.41;38.02
54872;BME280;43914;57.680;11.982;2023-05-25T12:47:51;101479.32;;;17.59;38.17
54872;BME280;43914;57.680;11.982;2023-05-25T12:50:17;101474.10;;;17.72;37.90
54872;BME280;43914;57.680;11.982;2023-05-25T12:52:44;101478.65;;;17.85;36.68
54872;BME280;43914;57.680;11.982;2023-05-25T12:55:27;101484.34;;;17.99;36.80
54872;BME280;43914;57.680;11.982;2023-05-25T12:57:55;101472.33;;;18.04;36.78
54872;BME280;43914;57.680;11.982;2023-05-25T13:00:23;101475.09;;;18.01;36.43
54872;BME280;43914;57.680;11.982;2023-05-25T13:02:53;101473.71;;;17.99;35.75